Time,TemperatureF,DewpointF,PressureIn,WindDirection,WindDirectionDegrees,WindSpeedMPH,WindSpeedGustMPH,Humidity,HourlyPrecipIn,Conditions,Clouds,dailyrainin,SoftwareType,DateUTC
2013-09-04 00:01:00,62.3,57.7,29.99,NNE,24,0.0,0.0,85,0.00,,---,0.00,VWS V14.01,2013-09-04 04:01:00,
2013-09-04 00:06:00,62.4,57.8,30.00,SE,127,1.0,3.0,85,0.00,,---,0.00,VWS V14.01,2013-09-04 04:06:00,
2013-09-04 00:11:00,62.3,57.7,30.00,SE,126,0.0,3.0,85,0.00,,---,0.00,VWS V14.01,2013-09-04 04:11:00,
2013-09-04 00:16:00,62.1,57.5,29.99,SE,126,0.0,3.0,85,0.00,,---,0.00,VWS V14.01,2013-09-04 04:16:00,
2013-09-04 00:21:00,62.1,57.5,30.00,SE,126,0.0,3.0,85,0.00,,---,0.00,VWS V14.01,2013-09-04 04:21:00,
2013-09-04 00:26:00,62.0,57.5,29.99,SE,132,0.0,3.0,85,0.00,,---,0.00,VWS V14.01,2013-09-04 04:26:00,
2013-09-04 00:31:00,62.0,57.5,29.99,SE,132,0.0,0.0,85,0.00,,---,0.00,VWS V14.01,2013-09-04 04:31:00,
2013-09-04 00:36:00,61.9,57.3,29.99,SE,132,0.0,2.0,85,0.00,,---,0.00,VWS V14.01,2013-09-04 04:36:00,
2013-09-04 00:41:00,61.8,57.2,29.99,ESE,123,0.0,2.0,85,0.00,,---,0.00,VWS V14.01,2013-09-04 04:41:00,
2013-09-04 00:46:00,61.6,57.0,30.00,NE,53,3.0,3.0,85,0.00,,---,0.00,VWS V14.01,2013-09-04 04:46:00,
2013-09-04 00:51:00,61.4,57.2,30.00,NE,53,0.0,3.0,86,0.00,,---,0.00,VWS V14.01,2013-09-04 04:51:00,
2013-09-04 00:56:00,61.2,57.0,30.00,NE,52,0.0,3.0,86,0.00,,---,0.00,VWS V14.01,2013-09-04 04:56:00,
2013-09-04 01:01:00,61.0,56.8,30.00,NE,53,0.0,0.0,86,0.00,,---,0.00,VWS V14.01,2013-09-04 05:01:00,
2013-09-04 01:06:00,60.8,56.9,30.00,NE,52,0.0,0.0,87,0.00,,---,0.00,VWS V14.01,2013-09-04 05:06:00,
2013-09-04 01:11:00,60.6,56.7,30.00,NE,53,0.0,0.0,87,0.00,,---,0.00,VWS V14.01,2013-09-04 05:11:00,
2013-09-04 01:16:00,60.3,56.7,30.00,NE,52,0.0,3.0,88,0.00,,---,0.00,VWS V14.01,2013-09-04 05:16:00,
2013-09-04 01:21:00,60.0,56.4,30.00,NE,53,0.0,3.0,88,0.00,,---,0.00,VWS V14.01,2013-09-04 05:21:00,
2013-09-04 01:26:00,59.7,56.2,30.00,NE,53,0.0,3.0,88,0.00,,---,0.00,VWS V14.01,2013-09-04 05:26:00,
2013-09-04 01:31:00,59.5,56.3,30.00,NE,53,0.0,0.0,89,0.00,,---,0.00,VWS V14.01,2013-09-04 05:31:00,
2013-09-04 01:36:00,59.4,56.2,30.00,NE,52,0.0,0.0,89,0.00,,---,0.00,VWS V14.01,2013-09-04 05:36:00,
2013-09-04 01:41:00,59.3,56.1,30.00,NE,53,0.0,1.0,89,0.00,,---,0.00,VWS V14.01,2013-09-04 05:41:00,
2013-09-04 01:46:00,59.2,56.0,30.00,NE,53,0.0,1.0,89,0.00,,---,0.00,VWS V14.01,2013-09-04 05:46:00,
2013-09-04 01:51:00,59.1,55.9,30.00,NE,52,0.0,1.0,89,0.00,,---,0.00,VWS V14.01,2013-09-04 05:51:00,
2013-09-04 01:55:00,59.0,55.8,30.00,NE,52,0.0,1.0,89,0.00,,---,0.00,VWS V14.01,2013-09-04 05:55:00,
2013-09-04 02:00:00,59.0,56.1,30.00,NE,53,0.0,0.0,90,0.00,,---,0.00,VWS V14.01,2013-09-04 06:00:00,
2013-09-04 02:05:00,59.0,56.1,30.00,NE,52,0.0,0.0,90,0.00,,---,0.00,VWS V14.01,2013-09-04 06:05:00,
2013-09-04 02:10:00,59.0,56.1,30.01,NE,53,0.0,1.0,90,0.00,,---,0.00,VWS V14.01,2013-09-04 06:10:00,
2013-09-04 02:15:00,58.7,55.8,30.01,NE,53,0.0,1.0,90,0.00,,---,0.00,VWS V14.01,2013-09-04 06:15:00,
2013-09-04 02:20:00,58.4,55.5,30.01,NE,53,0.0,1.0,90,0.00,,---,0.00,VWS V14.01,2013-09-04 06:20:00,
2013-09-04 02:25:00,58.2,55.3,30.01,NE,52,0.0,1.0,90,0.00,,---,0.00,VWS V14.01,2013-09-04 06:25:00,
2013-09-04 02:30:00,58.0,55.1,30.01,NE,52,0.0,0.0,90,0.00,,---,0.00,VWS V14.01,2013-09-04 06:30:00,
2013-09-04 02:35:00,57.8,55.2,30.01,NE,53,0.0,0.0,91,0.00,,---,0.00,VWS V14.01,2013-09-04 06:35:00,
2013-09-04 02:40:00,57.7,54.8,30.01,NE,53,0.0,0.0,90,0.00,,---,0.00,VWS V14.01,2013-09-04 06:40:00,
2013-09-04 02:45:00,57.6,55.0,30.01,NE,53,0.0,0.0,91,0.00,,---,0.00,VWS V14.01,2013-09-04 06:45:00,
2013-09-04 02:50:00,57.4,54.8,30.01,NE,52,0.0,0.0,91,0.00,,---,0.00,VWS V14.01,2013-09-04 06:50:00,
2013-09-04 02:55:00,57.3,54.7,30.01,NE,52,0.0,0.0,91,0.00,,---,0.00,VWS V14.01,2013-09-04 06:55:00,
2013-09-04 03:00:00,57.3,54.7,30.01,NE,53,0.0,0.0,91,0.00,,---,0.00,VWS V14.01,2013-09-04 07:00:00,
2013-09-04 03:05:00,57.2,54.6,30.01,NE,53,0.0,0.0,91,0.00,,---,0.00,VWS V14.01,2013-09-04 07:05:00,
2013-09-04 03:10:00,57.1,54.5,30.02,NE,53,0.0,0.0,91,0.00,,---,0.00,VWS V14.01,2013-09-04 07:10:00,
2013-09-04 03:15:00,57.0,54.4,30.02,NE,53,0.0,0.0,91,0.00,,---,0.00,VWS V14.01,2013-09-04 07:15:00,
2013-09-04 03:20:00,57.0,54.7,30.02,NE,53,0.0,0.0,92,0.00,,---,0.00,VWS V14.01,2013-09-04 07:20:00,
2013-09-04 03:25:00,56.8,54.5,30.02,NE,52,0.0,0.0,92,0.00,,---,0.00,VWS V14.01,2013-09-04 07:25:00,
2013-09-04 03:30:00,56.7,54.4,30.02,NE,52,0.0,0.0,92,0.00,,---,0.00,VWS V14.01,2013-09-04 07:30:00,
2013-09-04 03:35:00,56.5,54.2,30.02,NE,53,0.0,0.0,92,0.00,,---,0.00,VWS V14.01,2013-09-04 07:35:00,
2013-09-04 03:40:00,56.3,54.0,30.02,NE,52,0.0,0.0,92,0.00,,---,0.00,VWS V14.01,2013-09-04 07:40:00,
2013-09-04 03:45:00,56.2,53.9,30.02,NE,53,0.0,0.0,92,0.00,,---,0.00,VWS V14.01,2013-09-04 07:45:00,
2013-09-04 03:50:00,56.1,53.8,30.03,NE,52,0.0,0.0,92,0.00,,---,0.00,VWS V14.01,2013-09-04 07:50:00,
2013-09-04 03:55:00,55.9,53.6,30.03,NE,52,0.0,0.0,92,0.00,,---,0.00,VWS V14.01,2013-09-04 07:55:00,
2013-09-04 04:00:00,55.8,53.5,30.03,NE,53,0.0,0.0,92,0.00,,---,0.00,VWS V14.01,2013-09-04 08:00:00,
2013-09-04 04:05:00,55.7,53.4,30.03,NE,53,0.0,0.0,92,0.00,,---,0.00,VWS V14.01,2013-09-04 08:05:00,
2013-09-04 04:10:00,55.6,53.3,30.03,NE,52,0.0,0.0,92,0.00,,---,0.00,VWS V14.01,2013-09-04 08:10:00,
2013-09-04 04:15:00,55.5,53.2,30.03,NE,52,0.0,0.0,92,0.00,,---,0.00,VWS V14.01,2013-09-04 08:15:00,
2013-09-04 04:20:00,55.5,53.2,30.03,NE,53,0.0,0.0,92,0.00,,---,0.00,VWS V14.01,2013-09-04 08:20:00,
2013-09-04 04:25:00,55.6,53.3,30.04,NE,53,0.0,0.0,92,0.00,,---,0.00,VWS V14.01,2013-09-04 08:25:00,
2013-09-04 04:30:00,55.6,53.3,30.04,NE,53,0.0,0.0,92,0.00,,---,0.00,VWS V14.01,2013-09-04 08:30:00,
2013-09-04 04:35:00,55.6,53.3,30.04,NE,52,0.0,0.0,92,0.00,,---,0.00,VWS V14.01,2013-09-04 08:35:00,
2013-09-04 04:40:00,55.5,53.2,30.04,NE,52,0.0,1.0,92,0.00,,---,0.00,VWS V14.01,2013-09-04 08:40:00,
2013-09-04 04:45:00,55.5,53.2,30.04,NE,52,0.0,1.0,92,0.00,,---,0.00,VWS V14.01,2013-09-04 08:45:00,
2013-09-04 04:50:00,55.5,53.2,30.04,NE,53,0.0,1.0,92,0.00,,---,0.00,VWS V14.01,2013-09-04 08:50:00,
2013-09-04 04:55:00,55.4,53.4,30.04,NE,52,0.0,1.0,93,0.00,,---,0.00,VWS V14.01,2013-09-04 08:55:00,
2013-09-04 05:00:00,55.4,53.4,30.04,NE,52,0.0,1.0,93,0.00,,---,0.00,VWS V14.01,2013-09-04 09:00:00,
2013-09-04 05:05:00,55.3,53.3,30.05,NE,53,0.0,0.0,93,0.00,,---,0.00,VWS V14.01,2013-09-04 09:05:00,
2013-09-04 05:10:00,55.2,53.2,30.05,NE,52,0.0,0.0,93,0.00,,---,0.00,VWS V14.01,2013-09-04 09:10:00,
2013-09-04 05:15:00,55.1,53.1,30.05,NE,53,0.0,0.0,93,0.00,,---,0.00,VWS V14.01,2013-09-04 09:15:00,
2013-09-04 05:20:00,54.9,52.9,30.05,NE,53,0.0,0.0,93,0.00,,---,0.00,VWS V14.01,2013-09-04 09:20:00,
2013-09-04 05:25:00,54.8,52.8,30.05,NE,52,0.0,0.0,93,0.00,,---,0.00,VWS V14.01,2013-09-04 09:25:00,
2013-09-04 05:30:00,54.6,52.6,30.06,NE,52,0.0,0.0,93,0.00,,---,0.00,VWS V14.01,2013-09-04 09:30:00,
2013-09-04 05:35:00,54.5,52.5,30.05,NE,52,0.0,0.0,93,0.00,,---,0.00,VWS V14.01,2013-09-04 09:35:00,
2013-09-04 05:40:00,54.5,52.5,30.06,NE,53,0.0,0.0,93,0.00,,---,0.00,VWS V14.01,2013-09-04 09:40:00,
2013-09-04 05:45:00,54.5,52.5,30.06,NE,53,0.0,0.0,93,0.00,,---,0.00,VWS V14.01,2013-09-04 09:45:00,
2013-09-04 05:50:00,54.5,52.5,30.06,NE,53,0.0,0.0,93,0.00,,---,0.00,VWS V14.01,2013-09-04 09:50:00,
2013-09-04 05:55:00,54.5,52.5,30.06,NE,52,0.0,0.0,93,0.00,,---,0.00,VWS V14.01,2013-09-04 09:55:00,
2013-09-04 06:00:00,54.3,52.3,30.06,NE,52,0.0,0.0,93,0.00,,---,0.00,VWS V14.01,2013-09-04 10:00:00,
2013-09-04 06:05:00,54.2,52.2,30.06,NE,53,0.0,0.0,93,0.00,,---,0.00,VWS V14.01,2013-09-04 10:05:00,
2013-09-04 06:10:00,54.1,52.1,30.07,NE,53,0.0,0.0,93,0.00,,---,0.00,VWS V14.01,2013-09-04 10:10:00,
2013-09-04 06:15:00,53.9,51.9,30.07,NE,53,0.0,0.0,93,0.00,,---,0.00,VWS V14.01,2013-09-04 10:15:00,
2013-09-04 06:20:00,53.9,51.9,30.07,NE,52,0.0,0.0,93,0.00,,---,0.00,VWS V14.01,2013-09-04 10:20:00,
2013-09-04 06:25:00,53.9,51.9,30.07,NE,52,0.0,0.0,93,0.00,,---,0.00,VWS V14.01,2013-09-04 10:25:00,
2013-09-04 06:30:00,53.9,51.9,30.08,NE,52,0.0,0.0,93,0.00,,---,0.00,VWS V14.01,2013-09-04 10:30:00,
2013-09-04 06:35:00,53.8,51.8,30.08,NE,53,0.0,0.0,93,0.00,,---,0.00,VWS V14.01,2013-09-04 10:35:00,
2013-09-04 06:40:00,53.8,51.8,30.08,NE,53,0.0,0.0,93,0.00,,---,0.00,VWS V14.01,2013-09-04 10:40:00,
2013-09-04 06:45:00,54.0,52.0,30.08,NE,53,0.0,2.0,93,0.00,,---,0.00,VWS V14.01,2013-09-04 10:45:00,
2013-09-04 06:50:00,54.2,52.2,30.08,NE,53,0.0,2.0,93,0.00,,---,0.00,VWS V14.01,2013-09-04 10:50:00,
2013-09-04 06:55:00,54.3,52.3,30.08,NE,53,0.0,2.0,93,0.00,,---,0.00,VWS V14.01,2013-09-04 10:55:00,
2013-09-04 07:00:00,54.1,52.1,30.08,NE,53,0.0,2.0,93,0.00,,---,0.00,VWS V14.01,2013-09-04 11:00:00,
2013-09-04 07:05:00,53.9,51.9,30.09,NE,52,0.0,0.0,93,0.00,,---,0.00,VWS V14.01,2013-09-04 11:05:00,
2013-09-04 07:10:00,53.9,51.9,30.09,NE,52,0.0,0.0,93,0.00,,---,0.00,VWS V14.01,2013-09-04 11:10:00,
2013-09-04 07:15:00,54.2,52.2,30.09,NE,53,0.0,0.0,93,0.00,,---,0.00,VWS V14.01,2013-09-04 11:15:00,
2013-09-04 07:20:00,54.4,52.4,30.09,NE,53,0.0,0.0,93,0.00,,---,0.00,VWS V14.01,2013-09-04 11:20:00,
2013-09-04 07:25:00,54.7,52.7,30.10,NE,53,0.0,0.0,93,0.00,,---,0.00,VWS V14.01,2013-09-04 11:25:00,
2013-09-04 07:30:00,55.2,53.2,30.10,NE,53,0.0,0.0,93,0.00,,---,0.00,VWS V14.01,2013-09-04 11:30:00,
2013-09-04 07:35:00,55.8,53.8,30.10,NE,52,0.0,0.0,93,0.00,,---,0.00,VWS V14.01,2013-09-04 11:35:00,
2013-09-04 07:40:00,56.5,54.5,30.10,NE,52,0.0,0.0,93,0.00,,---,0.00,VWS V14.01,2013-09-04 11:40:00,
2013-09-04 07:45:00,57.3,55.3,30.10,NE,53,0.0,0.0,93,0.00,,---,0.00,VWS V14.01,2013-09-04 11:45:00,
2013-09-04 07:50:00,57.7,55.7,30.10,NE,53,0.0,0.0,93,0.00,,---,0.00,VWS V14.01,2013-09-04 11:50:00,
2013-09-04 07:54:00,57.8,55.8,30.10,NE,53,0.0,1.0,93,0.00,,---,0.00,VWS V14.01,2013-09-04 11:54:00,
2013-09-04 07:59:00,57.9,55.9,30.10,NE,52,0.0,1.0,93,0.00,,---,0.00,VWS V14.01,2013-09-04 11:59:00,
2013-09-04 08:04:00,58.1,56.1,30.11,NE,52,0.0,0.0,93,0.00,,---,0.00,VWS V14.01,2013-09-04 12:04:00,
2013-09-04 08:09:00,58.4,56.4,30.11,NE,53,0.0,0.0,93,0.00,,---,0.00,VWS V14.01,2013-09-04 12:09:00,
2013-09-04 08:14:00,58.9,56.9,30.11,NE,52,0.0,0.0,93,0.00,,---,0.00,VWS V14.01,2013-09-04 12:14:00,
2013-09-04 08:19:00,59.0,57.0,30.11,NE,53,0.0,0.0,93,0.00,,---,0.00,VWS V14.01,2013-09-04 12:19:00,
2013-09-04 08:24:00,59.4,57.4,30.11,NE,52,0.0,0.0,93,0.00,,---,0.00,VWS V14.01,2013-09-04 12:24:00,
2013-09-04 08:29:00,59.9,57.9,30.11,NE,52,0.0,1.0,93,0.00,,---,0.00,VWS V14.01,2013-09-04 12:29:00,
2013-09-04 08:34:00,60.5,58.5,30.11,NE,52,0.0,0.0,93,0.00,,---,0.00,VWS V14.01,2013-09-04 12:34:00,
2013-09-04 08:39:00,60.6,58.6,30.11,NE,52,0.0,1.0,93,0.00,,---,0.00,VWS V14.01,2013-09-04 12:39:00,
2013-09-04 08:44:00,60.9,58.9,30.11,NE,52,0.0,1.0,93,0.00,,---,0.00,VWS V14.01,2013-09-04 12:44:00,
2013-09-04 08:49:00,61.6,59.3,30.11,NE,52,0.0,1.0,92,0.00,,---,0.00,VWS V14.01,2013-09-04 12:49:00,
2013-09-04 08:54:00,61.7,59.4,30.11,NE,52,0.0,1.0,92,0.00,,---,0.00,VWS V14.01,2013-09-04 12:54:00,
2013-09-04 08:59:00,62.2,59.5,30.11,NE,52,0.0,1.0,91,0.00,,---,0.00,VWS V14.01,2013-09-04 12:59:00,
2013-09-04 09:04:00,63.1,60.1,30.11,NE,52,0.0,0.0,90,0.00,,---,0.00,VWS V14.01,2013-09-04 13:04:00,
2013-09-04 09:09:00,64.2,60.9,30.11,NE,52,0.0,1.0,89,0.00,,---,0.00,VWS V14.01,2013-09-04 13:09:00,
2013-09-04 09:14:00,65.3,61.0,30.11,NE,52,0.0,1.0,86,0.00,,---,0.00,VWS V14.01,2013-09-04 13:14:00,
2013-09-04 09:19:00,66.0,59.3,30.11,ENE,74,1.0,4.0,79,0.00,,---,0.00,VWS V14.01,2013-09-04 13:19:00,
2013-09-04 09:24:00,66.3,59.2,30.11,ENE,74,0.0,4.0,78,0.00,,---,0.00,VWS V14.01,2013-09-04 13:24:00,
2013-09-04 09:29:00,66.3,58.9,30.11,ENE,74,0.0,4.0,77,0.00,,---,0.00,VWS V14.01,2013-09-04 13:29:00,
2013-09-04 09:34:00,66.7,59.3,30.11,ENE,61,0.0,1.0,77,0.00,,---,0.00,VWS V14.01,2013-09-04 13:34:00,
2013-09-04 09:39:00,67.5,59.3,30.11,ENE,60,0.0,1.0,75,0.00,,---,0.00,VWS V14.01,2013-09-04 13:39:00,
2013-09-04 09:44:00,67.7,59.5,30.11,NE,52,0.0,4.0,75,0.00,,---,0.00,VWS V14.01,2013-09-04 13:44:00,
2013-09-04 09:49:00,68.2,59.2,30.11,NNE,32,0.0,4.0,73,0.00,,---,0.00,VWS V14.01,2013-09-04 13:49:00,
2013-09-04 09:54:00,68.2,58.8,30.11,NNE,33,1.0,5.0,72,0.00,,---,0.00,VWS V14.01,2013-09-04 13:54:00,
2013-09-04 09:59:00,68.3,58.9,30.11,ENE,73,1.0,5.0,72,0.00,,---,0.00,VWS V14.01,2013-09-04 13:59:00,
2013-09-04 10:04:00,68.3,58.9,30.12,NE,35,2.0,6.0,72,0.00,,---,0.00,VWS V14.01,2013-09-04 14:04:00,
2013-09-04 10:09:00,68.6,59.2,30.11,North,11,0.0,6.0,72,0.00,,---,0.00,VWS V14.01,2013-09-04 14:09:00,
2013-09-04 10:14:00,68.9,58.3,30.11,East,101,0.0,6.0,69,0.00,,---,0.00,VWS V14.01,2013-09-04 14:14:00,
2013-09-04 10:19:00,69.1,58.9,30.11,NE,38,1.0,6.0,70,0.00,,---,0.00,VWS V14.01,2013-09-04 14:19:00,
2013-09-04 10:24:00,69.3,58.7,30.11,NE,36,1.0,6.0,69,0.00,,---,0.00,VWS V14.01,2013-09-04 14:24:00,
2013-09-04 10:29:00,69.4,59.2,30.11,NE,46,1.0,6.0,70,0.00,,---,0.00,VWS V14.01,2013-09-04 14:29:00,
2013-09-04 10:34:00,70.2,59.6,30.11,SE,131,0.0,1.0,69,0.00,,---,0.00,VWS V14.01,2013-09-04 14:34:00,
2013-09-04 10:39:00,70.6,59.5,30.11,NNW,345,1.0,3.0,68,0.00,,---,0.00,VWS V14.01,2013-09-04 14:39:00,
2013-09-04 10:44:00,70.1,59.1,30.11,NNW,348,0.0,5.0,68,0.00,,---,0.00,VWS V14.01,2013-09-04 14:44:00,
2013-09-04 10:49:00,69.7,59.1,30.11,NNW,348,0.0,5.0,69,0.00,,---,0.00,VWS V14.01,2013-09-04 14:49:00,
2013-09-04 10:54:00,69.9,58.9,30.11,East,96,0.0,5.0,68,0.00,,---,0.00,VWS V14.01,2013-09-04 14:54:00,
2013-09-04 10:59:00,70.3,59.2,30.11,SE,127,0.0,5.0,68,0.00,,---,0.00,VWS V14.01,2013-09-04 14:59:00,
2013-09-04 11:04:00,70.5,58.6,30.11,ESE,123,0.0,2.0,66,0.00,,---,0.00,VWS V14.01,2013-09-04 15:04:00,
2013-09-04 11:09:00,71.0,59.5,30.11,ESE,122,0.0,2.0,67,0.00,,---,0.00,VWS V14.01,2013-09-04 15:09:00,
2013-09-04 11:14:00,71.5,59.6,30.11,ESE,110,0.0,3.0,66,0.00,,---,0.00,VWS V14.01,2013-09-04 15:14:00,
2013-09-04 11:19:00,71.8,59.8,30.11,NNW,344,2.0,4.0,66,0.00,,---,0.00,VWS V14.01,2013-09-04 15:19:00,
2013-09-04 11:24:00,71.1,58.8,30.11,NNE,21,1.0,4.0,65,0.00,,---,0.00,VWS V14.01,2013-09-04 15:24:00,
2013-09-04 11:29:00,71.0,59.5,30.11,NNE,32,0.0,4.0,67,0.00,,---,0.00,VWS V14.01,2013-09-04 15:29:00,
2013-09-04 11:34:00,71.9,59.5,30.11,South,179,0.0,2.0,65,0.00,,---,0.00,VWS V14.01,2013-09-04 15:34:00,
2013-09-04 11:39:00,72.5,60.5,30.11,South,179,0.0,3.0,66,0.00,,---,0.00,VWS V14.01,2013-09-04 15:39:00,
2013-09-04 11:44:00,73.1,59.8,30.11,NNE,17,0.0,4.0,63,0.00,,---,0.00,VWS V14.01,2013-09-04 15:44:00,
2013-09-04 11:49:00,73.5,61.0,30.11,East,84,1.0,4.0,65,0.00,,---,0.00,VWS V14.01,2013-09-04 15:49:00,
2013-09-04 11:54:00,74.4,61.4,30.10,WNW,294,4.0,4.0,64,0.00,,---,0.00,VWS V14.01,2013-09-04 15:54:00,
2013-09-04 11:59:00,73.7,59.9,30.10,NNE,29,0.0,6.0,62,0.00,,---,0.00,VWS V14.01,2013-09-04 15:59:00,
2013-09-04 12:04:00,73.8,60.4,30.10,North,350,0.0,3.0,63,0.00,,---,0.00,VWS V14.01,2013-09-04 16:04:00,
2013-09-04 12:09:00,73.9,60.5,30.10,ENE,64,0.0,3.0,63,0.00,,---,0.00,VWS V14.01,2013-09-04 16:09:00,
2013-09-04 12:14:00,74.1,60.3,30.10,ENE,57,0.0,3.0,62,0.00,,---,0.00,VWS V14.01,2013-09-04 16:14:00,
2013-09-04 12:19:00,75.1,61.2,30.09,South,171,0.0,3.0,62,0.00,,---,0.00,VWS V14.01,2013-09-04 16:19:00,
2013-09-04 12:24:00,75.3,60.5,30.09,South,179,7.0,7.0,60,0.00,,---,0.00,VWS V14.01,2013-09-04 16:24:00,
2013-09-04 12:29:00,74.0,60.2,30.10,South,181,5.0,8.0,62,0.00,,---,0.00,VWS V14.01,2013-09-04 16:29:00,
2013-09-04 12:34:00,73.0,60.1,30.09,South,190,0.0,4.0,64,0.00,,---,0.00,VWS V14.01,2013-09-04 16:34:00,
2013-09-04 12:39:00,73.3,60.4,30.09,WSW,245,0.0,6.0,64,0.00,,---,0.00,VWS V14.01,2013-09-04 16:39:00,
2013-09-04 12:44:00,73.9,61.0,30.09,West,276,0.0,6.0,64,0.00,,---,0.00,VWS V14.01,2013-09-04 16:44:00,
2013-09-04 12:49:00,74.0,60.6,30.09,West,277,0.0,6.0,63,0.00,,---,0.00,VWS V14.01,2013-09-04 16:49:00,
2013-09-04 12:54:00,74.3,60.5,30.09,SSW,204,1.0,7.0,62,0.00,,---,0.00,VWS V14.01,2013-09-04 16:54:00,
2013-09-04 12:59:00,74.3,60.5,30.09,West,260,0.0,7.0,62,0.00,,---,0.00,VWS V14.01,2013-09-04 16:59:00,
2013-09-04 13:04:00,74.6,60.7,30.09,SE,146,4.0,4.0,62,0.00,,---,0.00,VWS V14.01,2013-09-04 17:04:00,
2013-09-04 13:09:00,74.4,60.1,30.09,SE,140,2.0,6.0,61,0.00,,---,0.00,VWS V14.01,2013-09-04 17:09:00,
2013-09-04 13:14:00,74.3,60.5,30.09,SSE,165,4.0,6.0,62,0.00,,---,0.00,VWS V14.01,2013-09-04 17:14:00,
2013-09-04 13:19:00,74.3,60.5,30.09,SSE,148,1.0,6.0,62,0.00,,---,0.00,VWS V14.01,2013-09-04 17:19:00,
2013-09-04 13:24:00,75.1,61.7,30.08,SSE,163,3.0,6.0,63,0.00,,---,0.00,VWS V14.01,2013-09-04 17:24:00,
2013-09-04 13:29:00,75.4,60.6,30.08,SSE,167,1.0,6.0,60,0.00,,---,0.00,VWS V14.01,2013-09-04 17:29:00,
2013-09-04 13:34:00,75.8,60.0,30.08,South,182,0.0,5.0,58,0.00,,---,0.00,VWS V14.01,2013-09-04 17:34:00,
2013-09-04 13:39:00,75.5,59.7,30.08,East,101,3.0,6.0,58,0.00,,---,0.00,VWS V14.01,2013-09-04 17:39:00,
2013-09-04 13:44:00,75.2,59.9,30.08,SSE,150,0.0,6.0,59,0.00,,---,0.00,VWS V14.01,2013-09-04 17:44:00,
2013-09-04 13:48:00,75.8,60.9,30.08,South,176,1.0,6.0,60,0.00,,---,0.00,VWS V14.01,2013-09-04 17:48:00,
2013-09-04 13:53:00,76.7,61.3,30.08,South,185,2.0,6.0,59,0.00,,---,0.00,VWS V14.01,2013-09-04 17:53:00,
2013-09-04 13:58:00,76.6,60.7,30.08,NNW,333,3.0,6.0,58,0.00,,---,0.00,VWS V14.01,2013-09-04 17:58:00,
2013-09-04 14:03:00,77.0,61.1,30.08,NW,313,3.0,3.0,58,0.00,,---,0.00,VWS V14.01,2013-09-04 18:03:00,
2013-09-04 14:08:00,76.3,60.9,30.08,NNW,334,0.0,6.0,59,0.00,,---,0.00,VWS V14.01,2013-09-04 18:08:00,
2013-09-04 14:13:00,76.5,61.6,30.07,NNW,346,1.0,6.0,60,0.00,,---,0.00,VWS V14.01,2013-09-04 18:13:00,
2013-09-04 14:18:00,76.8,60.4,30.07,West,270,2.0,6.0,57,0.00,,---,0.00,VWS V14.01,2013-09-04 18:18:00,
2013-09-04 14:23:00,77.1,60.2,30.07,SSE,164,0.0,6.0,56,0.00,,---,0.00,VWS V14.01,2013-09-04 18:23:00,
2013-09-04 14:28:00,77.7,60.3,30.07,West,281,0.0,6.0,55,0.00,,---,0.00,VWS V14.01,2013-09-04 18:28:00,
2013-09-04 14:33:00,78.4,59.9,30.07,WSW,256,2.0,4.0,53,0.00,,---,0.00,VWS V14.01,2013-09-04 18:33:00,
2013-09-04 14:38:00,78.0,59.5,30.07,West,259,0.0,5.0,53,0.00,,---,0.00,VWS V14.01,2013-09-04 18:38:00,
2013-09-04 14:43:00,78.4,59.9,30.06,West,273,0.0,5.0,53,0.00,,---,0.00,VWS V14.01,2013-09-04 18:43:00,
2013-09-04 14:48:00,79.2,60.6,30.06,West,259,3.0,5.0,53,0.00,,---,0.00,VWS V14.01,2013-09-04 18:48:00,
2013-09-04 14:53:00,79.4,60.8,30.06,West,261,0.0,5.0,53,0.00,,---,0.00,VWS V14.01,2013-09-04 18:53:00,
2013-09-04 14:58:00,79.5,59.8,30.06,SSE,150,0.0,5.0,51,0.00,,---,0.00,VWS V14.01,2013-09-04 18:58:00,
2013-09-04 15:03:00,79.5,59.8,30.06,NNW,331,4.0,4.0,51,0.00,,---,0.00,VWS V14.01,2013-09-04 19:03:00,
2013-09-04 15:08:00,79.2,59.0,30.06,NNW,348,0.0,4.0,50,0.00,,---,0.00,VWS V14.01,2013-09-04 19:08:00,
2013-09-04 15:13:00,80.0,60.3,30.06,South,183,3.0,4.0,51,0.00,,---,0.00,VWS V14.01,2013-09-04 19:13:00,
2013-09-04 15:18:00,80.7,59.2,30.06,South,186,2.0,4.0,48,0.00,,---,0.00,VWS V14.01,2013-09-04 19:18:00,
2013-09-04 15:23:00,80.7,59.2,30.05,SSW,195,1.0,5.0,48,0.00,,---,0.00,VWS V14.01,2013-09-04 19:23:00,
2013-09-04 15:28:00,80.9,58.8,30.05,WNW,286,0.0,5.0,47,0.00,,---,0.00,VWS V14.01,2013-09-04 19:28:00,
2013-09-04 15:33:00,81.2,59.1,30.05,SW,234,0.0,4.0,47,0.00,,---,0.00,VWS V14.01,2013-09-04 19:33:00,
2013-09-04 15:38:00,81.4,59.3,30.05,SW,235,0.0,4.0,47,0.00,,---,0.00,VWS V14.01,2013-09-04 19:38:00,
2013-09-04 15:43:00,81.8,59.0,30.05,WNW,284,2.0,4.0,46,0.00,,---,0.00,VWS V14.01,2013-09-04 19:43:00,
2013-09-04 15:48:00,81.5,59.3,30.05,South,184,0.0,5.0,47,0.00,,---,0.00,VWS V14.01,2013-09-04 19:48:00,
2013-09-04 15:53:00,81.4,58.0,30.05,WSW,237,0.0,5.0,45,0.00,,---,0.00,VWS V14.01,2013-09-04 19:53:00,
2013-09-04 15:58:00,81.4,59.8,30.05,SSW,200,1.0,5.0,48,0.00,,---,0.00,VWS V14.01,2013-09-04 19:58:00,
2013-09-04 16:03:00,81.4,58.0,30.05,South,171,2.0,4.0,45,0.00,,---,0.00,VWS V14.01,2013-09-04 20:03:00,
2013-09-04 16:08:00,81.3,59.8,30.05,South,182,3.0,4.0,48,0.00,,---,0.00,VWS V14.01,2013-09-04 20:08:00,
2013-09-04 16:13:00,81.2,59.1,30.05,South,181,1.0,4.0,47,0.00,,---,0.00,VWS V14.01,2013-09-04 20:13:00,
2013-09-04 16:18:00,81.7,60.1,30.04,NW,307,1.0,4.0,48,0.00,,---,0.00,VWS V14.01,2013-09-04 20:18:00,
2013-09-04 16:23:00,81.7,60.1,30.04,SSW,196,3.0,4.0,48,0.00,,---,0.00,VWS V14.01,2013-09-04 20:23:00,
2013-09-04 16:28:00,81.4,61.5,30.04,SSW,207,1.0,5.0,51,0.00,,---,0.00,VWS V14.01,2013-09-04 20:28:00,
2013-09-04 16:33:00,81.0,60.6,30.04,South,175,0.0,4.0,50,0.00,,---,0.00,VWS V14.01,2013-09-04 20:33:00,
2013-09-04 16:38:00,80.8,60.4,30.04,South,179,1.0,6.0,50,0.00,,---,0.00,VWS V14.01,2013-09-04 20:38:00,
2013-09-04 16:43:00,80.8,60.4,30.04,South,184,0.0,6.0,50,0.00,,---,0.00,VWS V14.01,2013-09-04 20:43:00,
2013-09-04 16:48:00,81.3,59.8,30.04,SSW,196,0.0,6.0,48,0.00,,---,0.00,VWS V14.01,2013-09-04 20:48:00,
2013-09-04 16:53:00,81.9,61.5,30.04,SW,225,1.0,6.0,50,0.00,,---,0.00,VWS V14.01,2013-09-04 20:53:00,
2013-09-04 16:58:00,82.0,62.1,30.04,WSW,246,0.0,6.0,51,0.00,,---,0.00,VWS V14.01,2013-09-04 20:58:00,
2013-09-04 17:03:00,82.1,61.6,30.04,WSW,252,0.0,3.0,50,0.00,,---,0.00,VWS V14.01,2013-09-04 21:03:00,
2013-09-04 17:08:00,81.8,61.4,30.04,North,355,0.0,4.0,50,0.00,,---,0.00,VWS V14.01,2013-09-04 21:08:00,
2013-09-04 17:13:00,81.2,60.8,30.03,South,180,0.0,5.0,50,0.00,,---,0.00,VWS V14.01,2013-09-04 21:13:00,
2013-09-04 17:18:00,81.2,60.8,30.03,South,180,0.0,5.0,50,0.00,,---,0.00,VWS V14.01,2013-09-04 21:18:00,
2013-09-04 17:23:00,81.1,60.2,30.04,SSW,198,3.0,5.0,49,0.00,,---,0.00,VWS V14.01,2013-09-04 21:23:00,
2013-09-04 17:28:00,81.3,60.9,30.04,South,180,0.0,5.0,50,0.00,,---,0.00,VWS V14.01,2013-09-04 21:28:00,
2013-09-04 17:33:00,82.0,61.0,30.04,SSE,167,0.0,3.0,49,0.00,,---,0.00,VWS V14.01,2013-09-04 21:33:00,
2013-09-04 17:38:00,82.4,61.3,30.03,South,179,0.0,3.0,49,0.00,,---,0.00,VWS V14.01,2013-09-04 21:38:00,
2013-09-04 17:43:00,82.4,61.3,30.03,SSW,200,0.0,3.0,49,0.00,,---,0.00,VWS V14.01,2013-09-04 21:43:00,
2013-09-04 17:48:00,82.5,60.8,30.03,SSW,200,0.0,3.0,48,0.00,,---,0.00,VWS V14.01,2013-09-04 21:48:00,
2013-09-04 17:53:00,82.7,61.0,30.03,SW,228,0.0,3.0,48,0.00,,---,0.00,VWS V14.01,2013-09-04 21:53:00,
2013-09-04 17:58:00,82.9,61.2,30.03,SW,228,0.0,3.0,48,0.00,,---,0.00,VWS V14.01,2013-09-04 21:58:00,
2013-09-04 18:03:00,83.5,62.3,30.03,SW,224,2.0,2.0,49,0.00,,---,0.00,VWS V14.01,2013-09-04 22:03:00,
2013-09-04 18:08:00,83.5,63.5,30.03,SW,221,0.0,3.0,51,0.00,,---,0.00,VWS V14.01,2013-09-04 22:08:00,
2013-09-04 18:13:00,83.3,63.3,30.03,SW,219,0.0,3.0,51,0.00,,---,0.00,VWS V14.01,2013-09-04 22:13:00,
2013-09-04 18:18:00,83.0,63.6,30.03,South,184,1.0,4.0,52,0.00,,---,0.00,VWS V14.01,2013-09-04 22:18:00,
2013-09-04 18:23:00,82.8,62.8,30.03,SSW,196,0.0,4.0,51,0.00,,---,0.00,VWS V14.01,2013-09-04 22:23:00,
2013-09-04 18:28:00,82.3,63.5,30.03,SSW,199,0.0,4.0,53,0.00,,---,0.00,VWS V14.01,2013-09-04 22:28:00,
2013-09-04 18:33:00,81.9,63.6,30.03,WSW,244,0.0,1.0,54,0.00,,---,0.00,VWS V14.01,2013-09-04 22:33:00,
2013-09-04 18:38:00,81.6,63.9,30.03,WSW,248,2.0,2.0,55,0.00,,---,0.00,VWS V14.01,2013-09-04 22:38:00,
2013-09-04 18:43:00,81.4,63.7,30.03,WSW,246,1.0,2.0,55,0.00,,---,0.00,VWS V14.01,2013-09-04 22:43:00,
2013-09-04 18:48:00,81.4,64.2,30.03,WSW,246,0.0,2.0,56,0.00,,---,0.00,VWS V14.01,2013-09-04 22:48:00,
2013-09-04 18:53:00,81.3,63.6,30.03,WSW,246,0.0,2.0,55,0.00,,---,0.00,VWS V14.01,2013-09-04 22:53:00,
2013-09-04 18:58:00,81.2,64.0,30.03,WSW,246,0.0,2.0,56,0.00,,---,0.00,VWS V14.01,2013-09-04 22:58:00,
2013-09-04 19:03:00,80.9,64.2,30.03,WSW,246,0.0,0.0,57,0.00,,---,0.00,VWS V14.01,2013-09-04 23:03:00,
2013-09-04 19:08:00,80.3,63.2,30.03,WSW,246,0.0,1.0,56,0.00,,---,0.00,VWS V14.01,2013-09-04 23:08:00,
2013-09-04 19:13:00,79.7,63.6,30.03,WSW,246,0.0,1.0,58,0.00,,---,0.00,VWS V14.01,2013-09-04 23:13:00,
2013-09-04 19:18:00,78.9,62.9,30.03,WSW,246,0.0,1.0,58,0.00,,---,0.00,VWS V14.01,2013-09-04 23:18:00,
2013-09-04 19:23:00,78.5,63.5,30.03,WSW,246,0.0,1.0,60,0.00,,---,0.00,VWS V14.01,2013-09-04 23:23:00,
2013-09-04 19:28:00,77.8,64.7,30.03,WSW,246,0.0,1.0,64,0.00,,---,0.00,VWS V14.01,2013-09-04 23:28:00,
2013-09-04 19:32:00,76.8,64.6,30.04,WSW,246,0.0,0.0,66,0.00,,---,0.00,VWS V14.01,2013-09-04 23:32:00,
2013-09-04 19:37:00,76.0,64.3,30.04,WSW,246,0.0,0.0,67,0.00,,---,0.00,VWS V14.01,2013-09-04 23:37:00,
2013-09-04 19:42:00,74.6,63.3,30.04,SW,236,0.0,1.0,68,0.00,,---,0.00,VWS V14.01,2013-09-04 23:42:00,
2013-09-04 19:47:00,73.2,63.2,30.05,SW,236,0.0,1.0,71,0.00,,---,0.00,VWS V14.01,2013-09-04 23:47:00,
2013-09-04 19:52:00,72.1,63.0,30.05,SW,236,0.0,1.0,73,0.00,,---,0.00,VWS V14.01,2013-09-04 23:52:00,
2013-09-04 19:57:00,71.3,62.6,30.05,SW,236,0.0,1.0,74,0.00,,---,0.00,VWS V14.01,2013-09-04 23:57:00,
2013-09-04 20:02:00,70.8,62.9,30.05,SW,236,0.0,1.0,76,0.00,,---,0.00,VWS V14.01,2013-09-05 00:02:00,
2013-09-04 20:07:00,70.3,62.8,30.05,SW,236,1.0,1.0,77,0.00,,---,0.00,VWS V14.01,2013-09-05 00:07:00,
2013-09-04 20:12:00,69.7,62.2,30.05,SW,214,0.0,3.0,77,0.00,,---,0.00,VWS V14.01,2013-09-05 00:12:00,
2013-09-04 20:17:00,69.3,62.2,30.05,SW,214,0.0,3.0,78,0.00,,---,0.00,VWS V14.01,2013-09-05 00:17:00,
2013-09-04 20:22:00,68.9,62.1,30.04,SW,214,0.0,3.0,79,0.00,,---,0.00,VWS V14.01,2013-09-05 00:22:00,
2013-09-04 20:27:00,68.6,62.2,30.05,SW,214,0.0,3.0,80,0.00,,---,0.00,VWS V14.01,2013-09-05 00:27:00,
2013-09-04 20:32:00,68.2,61.8,30.05,SW,214,1.0,1.0,80,0.00,,---,0.00,VWS V14.01,2013-09-05 00:32:00,
2013-09-04 20:37:00,67.9,61.9,30.05,SW,214,0.0,1.0,81,0.00,,---,0.00,VWS V14.01,2013-09-05 00:37:00,
2013-09-04 20:42:00,67.6,61.6,30.05,SSW,213,0.0,1.0,81,0.00,,---,0.00,VWS V14.01,2013-09-05 00:42:00,
2013-09-04 20:47:00,67.4,61.4,30.05,SSE,148,0.0,4.0,81,0.00,,---,0.00,VWS V14.01,2013-09-05 00:47:00,
2013-09-04 20:52:00,67.3,60.9,30.05,SSE,148,0.0,4.0,80,0.00,,---,0.00,VWS V14.01,2013-09-05 00:52:00,
2013-09-04 20:57:00,67.3,60.9,30.05,SSE,148,0.0,4.0,80,0.00,,---,0.00,VWS V14.01,2013-09-05 00:57:00,
2013-09-04 21:02:00,67.1,61.1,30.05,SSE,148,0.0,0.0,81,0.00,,---,0.00,VWS V14.01,2013-09-05 01:02:00,
2013-09-04 21:07:00,66.9,60.9,30.05,SSE,148,0.0,1.0,81,0.00,,---,0.00,VWS V14.01,2013-09-05 01:07:00,
2013-09-04 21:12:00,66.4,61.1,30.05,SSE,148,0.0,1.0,83,0.00,,---,0.00,VWS V14.01,2013-09-05 01:12:00,
2013-09-04 21:17:00,65.9,60.9,30.05,SSE,148,0.0,1.0,84,0.00,,---,0.00,VWS V14.01,2013-09-05 01:17:00,
2013-09-04 21:22:00,65.5,60.5,30.06,SSE,148,0.0,1.0,84,0.00,,---,0.00,VWS V14.01,2013-09-05 01:22:00,
2013-09-04 21:27:00,65.1,60.2,30.06,SSE,148,0.0,1.0,84,0.00,,---,0.00,VWS V14.01,2013-09-05 01:27:00,
2013-09-04 21:32:00,64.8,60.2,30.06,SE,143,0.0,3.0,85,0.00,,---,0.00,VWS V14.01,2013-09-05 01:32:00,
2013-09-04 21:37:00,64.6,60.0,30.06,SSE,163,0.0,3.0,85,0.00,,---,0.00,VWS V14.01,2013-09-05 01:37:00,
2013-09-04 21:42:00,64.5,59.9,30.06,SSE,163,0.0,3.0,85,0.00,,---,0.00,VWS V14.01,2013-09-05 01:42:00,
2013-09-04 21:47:00,64.4,59.8,30.06,SSE,163,0.0,3.0,85,0.00,,---,0.00,VWS V14.01,2013-09-05 01:47:00,
2013-09-04 21:52:00,64.2,59.6,30.07,SSE,163,0.0,3.0,85,0.00,,---,0.00,VWS V14.01,2013-09-05 01:52:00,
2013-09-04 21:57:00,64.0,59.7,30.07,SSE,163,0.0,3.0,86,0.00,,---,0.00,VWS V14.01,2013-09-05 01:57:00,
2013-09-04 22:02:00,63.7,59.4,30.07,SSE,163,0.0,0.0,86,0.00,,---,0.00,VWS V14.01,2013-09-05 02:02:00,
2013-09-04 22:07:00,63.4,59.5,30.07,SSE,163,0.0,0.0,87,0.00,,---,0.00,VWS V14.01,2013-09-05 02:07:00,
2013-09-04 22:12:00,63.2,59.3,30.07,SSE,163,0.0,1.0,87,0.00,,---,0.00,VWS V14.01,2013-09-05 02:12:00,
2013-09-04 22:17:00,63.0,59.1,30.07,SSE,163,0.0,1.0,87,0.00,,---,0.00,VWS V14.01,2013-09-05 02:17:00,
2013-09-04 22:22:00,62.9,59.3,30.07,SSE,152,1.0,2.0,88,0.00,,---,0.00,VWS V14.01,2013-09-05 02:22:00,
2013-09-04 22:27:00,62.9,59.3,30.07,SE,144,1.0,3.0,88,0.00,,---,0.00,VWS V14.01,2013-09-05 02:27:00,
2013-09-04 22:32:00,62.9,59.3,30.07,SE,144,0.0,0.0,88,0.00,,---,0.00,VWS V14.01,2013-09-05 02:32:00,
2013-09-04 22:37:00,62.8,59.2,30.07,SE,144,0.0,1.0,88,0.00,,---,0.00,VWS V14.01,2013-09-05 02:37:00,
2013-09-04 22:42:00,62.7,59.1,30.07,SE,144,0.0,1.0,88,0.00,,---,0.00,VWS V14.01,2013-09-05 02:42:00,
2013-09-04 22:47:00,62.5,58.9,30.08,SE,144,0.0,2.0,88,0.00,,---,0.00,VWS V14.01,2013-09-05 02:47:00,
2013-09-04 22:52:00,62.2,58.6,30.08,SE,144,0.0,2.0,88,0.00,,---,0.00,VWS V14.01,2013-09-05 02:52:00,
2013-09-04 22:57:00,61.9,58.3,30.08,SE,144,0.0,2.0,88,0.00,,---,0.00,VWS V14.01,2013-09-05 02:57:00,
2013-09-04 23:02:00,61.7,58.4,30.08,SE,144,0.0,0.0,89,0.00,,---,0.00,VWS V14.01,2013-09-05 03:02:00,
2013-09-04 23:07:00,61.5,58.2,30.08,SE,144,0.0,0.0,89,0.00,,---,0.00,VWS V14.01,2013-09-05 03:07:00,
2013-09-04 23:12:00,61.3,58.0,30.08,SE,144,0.0,0.0,89,0.00,,---,0.00,VWS V14.01,2013-09-05 03:12:00,
2013-09-04 23:17:00,61.1,58.2,30.08,SE,144,0.0,0.0,90,0.00,,---,0.00,VWS V14.01,2013-09-05 03:17:00,
2013-09-04 23:22:00,61.2,58.2,30.08,SE,138,0.0,4.0,90,0.00,,---,0.00,VWS V14.01,2013-09-05 03:22:00,
2013-09-04 23:27:00,61.3,58.3,30.08,SE,136,0.0,4.0,90,0.00,,---,0.00,VWS V14.01,2013-09-05 03:27:00,
2013-09-04 23:32:00,61.3,58.3,30.08,SE,136,0.0,0.0,90,0.00,,---,0.00,VWS V14.01,2013-09-05 03:32:00,
2013-09-04 23:37:00,61.1,58.2,30.08,SE,136,0.0,0.0,90,0.00,,---,0.00,VWS V14.01,2013-09-05 03:37:00,
2013-09-04 23:42:00,61.0,58.0,30.08,SE,136,0.0,0.0,90,0.00,,---,0.00,VWS V14.01,2013-09-05 03:42:00,
2013-09-04 23:47:00,60.8,57.8,30.08,SE,136,0.0,1.0,90,0.00,,---,0.00,VWS V14.01,2013-09-05 03:47:00,
2013-09-04 23:52:00,60.2,57.3,30.08,SE,136,0.0,1.0,90,0.00,,---,0.00,VWS V14.01,2013-09-05 03:52:00,
2013-09-04 23:57:00,59.8,56.9,30.08,SE,136,0.0,1.0,90,0.00,,---,0.00,VWS V14.01,2013-09-05 03:57:00,